createdAt,value
2023-04-09T00:02:01.571Z,102713.66
2023-04-09T00:04:28.215Z,102720.75
2023-04-09T00:06:54.794Z,102717.19
2023-04-09T00:09:21.479Z,102720.75
2023-04-09T00:11:48.039Z,102719.91
2023-04-09T00:14:14.579Z,102719.88
2023-04-09T00:16:41.189Z,102719.00
2023-04-09T00:19:07.743Z,102714.41
2023-04-09T00:21:34.300Z,102716.19
2023-04-09T00:24:01.236Z,102724.25
2023-04-09T00:26:27.848Z,102720.59
2023-04-09T00:28:55.247Z,102723.28
2023-04-09T00:31:21.874Z,102726.81
2023-04-09T00:33:48.603Z,102723.28
2023-04-09T00:36:15.545Z,102722.34
2023-04-09T00:38:42.130Z,102713.34
2023-04-09T00:41:08.820Z,102709.91
2023-04-09T00:43:35.385Z,102712.56
2023-04-09T00:46:02.021Z,102715.19
2023-04-09T00:48:28.627Z,102705.34
2023-04-09T00:50:55.432Z,102707.06
2023-04-09T00:53:22.102Z,102706.16
2023-04-09T00:55:48.642Z,102708.94
2023-04-09T00:58:15.358Z,102700.00
2023-04-09T01:00:41.944Z,102703.50
2023-04-09T01:03:08.633Z,102696.44
2023-04-09T01:05:44.685Z,102692.81
2023-04-09T01:08:33.964Z,102700.72
2023-04-09T01:11:12.556Z,102689.16
2023-04-09T01:13:56.992Z,102695.47
2023-04-09T01:16:24.304Z,102696.31
2023-04-09T01:18:58.456Z,102691.81
2023-04-09T01:21:32.713Z,102688.31
2023-04-09T01:24:34.692Z,102689.19
2023-04-09T01:27:05.996Z,102696.31
2023-04-09T01:29:35.735Z,102692.63
2023-04-09T01:32:03.399Z,102692.69
2023-04-09T01:34:30.819Z,102696.25
2023-04-09T01:36:59.631Z,102698.00
2023-04-09T01:39:27.112Z,102699.88
2023-04-09T01:41:53.981Z,102687.34
2023-04-09T01:44:20.912Z,102698.13
2023-04-09T01:46:48.286Z,102694.44
2023-04-09T01:49:15.449Z,102685.50
2023-04-09T01:51:42.674Z,102685.53
2023-04-09T01:54:09.452Z,102693.56
2023-04-09T01:56:41.739Z,102683.72
2023-04-09T01:59:08.325Z,102680.19
2023-04-09T02:01:47.579Z,102689.06
2023-04-09T02:04:38.559Z,102689.06
2023-04-09T02:07:15.013Z,102683.75
2023-04-09T02:09:42.084Z,102690.00
2023-04-09T02:12:12.997Z,102680.16
2023-04-09T02:14:40.365Z,102679.31
2023-04-09T02:17:07.057Z,102676.56
2023-04-09T02:19:44.747Z,102676.56
2023-04-09T02:22:12.282Z,102671.19
2023-04-09T02:24:40.416Z,102678.28
2023-04-09T02:27:07.294Z,102669.47
2023-04-09T02:29:34.264Z,102665.75
2023-04-09T02:32:00.969Z,102656.78
2023-04-09T02:34:27.783Z,102660.31
2023-04-09T02:36:54.336Z,102660.28
2023-04-09T02:39:20.891Z,102655.94
2023-04-09T02:41:47.442Z,102650.50
2023-04-09T02:44:14.029Z,102645.88
2023-04-09T02:46:41.379Z,102648.59
2023-04-09T02:49:08.118Z,102642.41
2023-04-09T02:51:35.975Z,102643.31
2023-04-09T02:54:03.437Z,102648.66
2023-04-09T02:56:30.041Z,102641.56
2023-04-09T02:58:56.622Z,102643.38
2023-04-09T03:01:23.230Z,102647.81
2023-04-09T03:03:50.435Z,102645.03
2023-04-09T03:06:18.630Z,102644.19
2023-04-09T03:08:45.612Z,102644.25
2023-04-09T03:11:12.189Z,102654.94
2023-04-09T03:13:38.760Z,102649.50
2023-04-09T03:16:05.763Z,102652.31
2023-04-09T03:18:32.398Z,102647.78
2023-04-09T03:20:58.958Z,102648.72
2023-04-09T03:23:25.571Z,102652.22
2023-04-09T03:26:01.209Z,102646.81
2023-04-09T03:28:27.760Z,102645.88
2023-04-09T03:30:54.357Z,102640.53
2023-04-09T03:33:20.966Z,102652.97
2023-04-09T03:35:47.720Z,102645.78
2023-04-09T03:38:14.581Z,102644.94
2023-04-09T03:40:42.706Z,102635.09
2023-04-09T03:43:09.297Z,102631.53
2023-04-09T03:45:35.883Z,102633.44
2023-04-09T03:48:02.540Z,102639.59
2023-04-09T03:50:29.179Z,102634.25
2023-04-09T03:52:55.834Z,102633.38
2023-04-09T03:55:22.414Z,102642.28
2023-04-09T03:57:49.002Z,102638.72
2023-04-09T04:00:15.708Z,102630.66
2023-04-09T04:02:42.521Z,102635.94
2023-04-09T04:05:09.367Z,102628.81
2023-04-09T04:07:37.024Z,102639.56
2023-04-09T04:10:07.343Z,102635.00
2023-04-09T04:12:33.972Z,102640.44
2023-04-09T04:15:01.170Z,102633.19
2023-04-09T04:17:27.898Z,102636.78
2023-04-09T04:19:54.556Z,102641.22
2023-04-09T04:22:21.216Z,102638.56
2023-04-09T04:24:47.791Z,102630.56
2023-04-09T04:27:14.406Z,102634.13
2023-04-09T04:29:41.181Z,102634.13
2023-04-09T04:32:07.753Z,102633.28
2023-04-09T04:34:34.336Z,102634.88
2023-04-09T04:37:00.875Z,102632.25
2023-04-09T04:39:27.457Z,102633.16
2023-04-09T04:41:54.057Z,102632.22
2023-04-09T04:44:20.615Z,102634.00
2023-04-09T04:46:47.157Z,102633.94
2023-04-09T04:49:13.793Z,102645.66
2023-04-09T04:51:40.461Z,102637.56
2023-04-09T04:54:07.092Z,102642.16
2023-04-09T04:56:33.726Z,102640.16
2023-04-09T04:59:00.771Z,102639.28
2023-04-09T05:01:27.500Z,102638.41
2023-04-09T05:03:54.291Z,102642.81
2023-04-09T05:06:21.213Z,102644.66
2023-04-09T05:08:47.750Z,102643.78
2023-04-09T05:11:16.282Z,102642.84
2023-04-09T05:13:42.880Z,102641.09
2023-04-09T05:16:16.609Z,102647.34
2023-04-09T05:18:43.228Z,102638.34
2023-04-09T05:21:09.763Z,102636.59
2023-04-09T05:23:36.474Z,102642.84
2023-04-09T05:26:03.078Z,102638.31
2023-04-09T05:28:29.658Z,102635.69
2023-04-09T05:30:56.436Z,102638.31
2023-04-09T05:33:23.016Z,102649.09
2023-04-09T05:35:49.635Z,102641.00
2023-04-09T05:38:16.533Z,102641.88
2023-04-09T05:40:45.022Z,102641.84
2023-04-09T05:43:11.994Z,102640.03
2023-04-09T05:45:38.543Z,102640.09
2023-04-09T05:48:05.352Z,102638.34
2023-04-09T05:50:36.120Z,102643.69
2023-04-09T05:53:10.414Z,102642.72
2023-04-09T05:55:37.024Z,102643.69
2023-04-09T05:58:03.574Z,102642.84
2023-04-09T06:00:30.275Z,102642.81
2023-04-09T06:02:56.889Z,102638.34
2023-04-09T06:05:23.575Z,102643.78
2023-04-09T06:07:50.204Z,102631.25
2023-04-09T06:10:16.838Z,102632.13
2023-04-09T06:12:43.477Z,102638.44
2023-04-09T06:15:10.691Z,102643.88
2023-04-09T06:17:37.403Z,102626.19
2023-04-09T06:20:04.325Z,102640.44
2023-04-09T06:22:31.076Z,102636.81
2023-04-09T06:24:57.662Z,102652.97
2023-04-09T06:27:24.431Z,102649.38
2023-04-09T06:29:51.132Z,102648.38
2023-04-09T06:32:17.812Z,102658.28
2023-04-09T06:34:44.457Z,102647.59
2023-04-09T06:37:11.217Z,102657.44
2023-04-09T06:39:40.341Z,102652.94
2023-04-09T06:42:07.159Z,102649.38
2023-04-09T06:44:34.507Z,102655.72
2023-04-09T06:47:01.152Z,102647.59
2023-04-09T06:49:27.726Z,102652.00
2023-04-09T06:51:54.308Z,102656.50
2023-04-09T06:54:20.939Z,102658.22
2023-04-09T06:56:47.513Z,102661.84
2023-04-09T06:59:14.103Z,102654.75
2023-04-09T07:01:41.624Z,102646.72
2023-04-09T07:04:08.424Z,102649.44
2023-04-09T07:06:35.048Z,102649.44
2023-04-09T07:09:01.611Z,102649.41
2023-04-09T07:11:28.162Z,102645.97
2023-04-09T07:13:56.856Z,102655.72
2023-04-09T07:16:23.761Z,102658.41
2023-04-09T07:18:50.741Z,102658.41
2023-04-09T07:21:17.342Z,102666.44
2023-04-09T07:23:43.963Z,102662.81
2023-04-09T07:26:10.663Z,102676.28
2023-04-09T07:28:37.268Z,102667.28
2023-04-09T07:31:03.956Z,102662.78
2023-04-09T07:33:31.458Z,102678.00
2023-04-09T07:35:58.074Z,102670.81
2023-04-09T07:38:24.664Z,102678.00
2023-04-09T07:40:51.274Z,102678.91
2023-04-09T07:43:18.398Z,102675.41
2023-04-09T07:45:45.921Z,102668.34
2023-04-09T07:48:12.954Z,102665.53
2023-04-09T07:50:39.546Z,102662.03
2023-04-09T07:53:06.213Z,102671.00
2023-04-09T07:55:32.801Z,102668.34
2023-04-09T07:57:59.678Z,102673.59
2023-04-09T08:00:26.225Z,102666.53
2023-04-09T08:02:53.088Z,102673.69
2023-04-09T08:05:19.955Z,102675.41
2023-04-09T08:07:47.039Z,102676.34
2023-04-09T08:10:15.294Z,102679.88
2023-04-09T08:12:42.251Z,102678.19
2023-04-09T08:15:09.326Z,102678.97
2023-04-09T08:17:38.414Z,102674.53
2023-04-09T08:20:05.529Z,102674.56
2023-04-09T08:22:32.437Z,102672.72
2023-04-09T08:25:01.490Z,102670.94
2023-04-09T08:27:29.349Z,102677.22
2023-04-09T08:29:56.022Z,102678.16
2023-04-09T08:32:22.824Z,102676.34
2023-04-09T08:34:49.439Z,102677.22
2023-04-09T08:37:16.721Z,102674.53
2023-04-09T08:39:43.327Z,102673.66
2023-04-09T08:42:12.551Z,102671.00
2023-04-09T08:44:39.108Z,102670.13
2023-04-09T08:47:10.263Z,102666.53
2023-04-09T08:49:37.033Z,102669.28
2023-04-09T08:52:03.830Z,102681.72
2023-04-09T08:54:30.487Z,102675.50
2023-04-09T08:56:57.575Z,102677.31
2023-04-09T08:59:24.244Z,102671.91
2023-04-09T09:02:07.639Z,102676.47
2023-04-09T09:04:49.747Z,102675.47
2023-04-09T09:07:17.394Z,102679.88
2023-04-09T09:09:53.307Z,102675.53
2023-04-09T09:12:36.158Z,102678.25
2023-04-09T09:15:03.463Z,102677.31
2023-04-09T09:17:30.055Z,102673.69
2023-04-09T09:19:56.992Z,102671.13
2023-04-09T09:22:24.739Z,102678.25
2023-04-09T09:24:52.694Z,102672.00
2023-04-09T09:27:43.113Z,102677.41
2023-04-09T09:30:21.657Z,102678.25
2023-04-09T09:32:54.940Z,102680.94
2023-04-09T09:35:21.773Z,102667.66
2023-04-09T09:37:48.404Z,102672.91
2023-04-09T09:40:27.664Z,102671.13
2023-04-09T09:42:58.046Z,102662.22
2023-04-09T09:45:25.390Z,102651.53
2023-04-09T09:47:53.798Z,102660.44
2023-04-09T09:50:24.185Z,102660.50
2023-04-09T09:52:51.035Z,102661.28
2023-04-09T09:55:18.075Z,102658.63
2023-04-09T09:57:45.007Z,102660.44
2023-04-09T10:00:12.681Z,102655.06
2023-04-09T10:02:45.292Z,102654.19
2023-04-09T10:05:12.051Z,102655.16
2023-04-09T10:07:38.975Z,102648.06
2023-04-09T10:10:06.184Z,102648.94
2023-04-09T10:12:33.178Z,102654.38
2023-04-09T10:15:04.594Z,102647.28
2023-04-09T10:17:32.446Z,102647.22
2023-04-09T10:20:12.471Z,102651.78
2023-04-09T10:22:39.371Z,102647.41
2023-04-09T10:25:06.604Z,102639.34
2023-04-09T10:27:33.238Z,102636.69
2023-04-09T10:30:02.740Z,102634.09
2023-04-09T10:32:34.794Z,102629.66
2023-04-09T10:35:03.584Z,102628.63
2023-04-09T10:37:30.349Z,102620.69
2023-04-09T10:39:57.923Z,102615.28
2023-04-09T10:42:30.292Z,102617.28
2023-04-09T10:45:09.729Z,102614.75
2023-04-09T10:47:40.851Z,102613.81
2023-04-09T10:50:26.604Z,102609.50
2023-04-09T10:52:58.248Z,102624.75
2023-04-09T10:55:40.842Z,102608.63
2023-04-09T10:58:13.301Z,102613.03
2023-04-09T11:00:42.332Z,102606.03
2023-04-09T11:03:09.386Z,102601.63
2023-04-09T11:05:40.484Z,102610.50
2023-04-09T11:08:11.735Z,102598.03
2023-04-09T11:10:39.751Z,102593.66
2023-04-09T11:13:06.426Z,102581.13
2023-04-09T11:15:35.712Z,102595.59
2023-04-09T11:18:03.055Z,102585.75
2023-04-09T11:20:31.145Z,102589.38
2023-04-09T11:22:59.397Z,102579.63
2023-04-09T11:25:27.758Z,102576.09
2023-04-09T11:27:54.812Z,102569.88
2023-04-09T11:30:21.412Z,102569.94
2023-04-09T11:32:49.246Z,102569.09
2023-04-09T11:35:17.932Z,102562.88
2023-04-09T11:37:45.403Z,102558.44
2023-04-09T11:40:29.920Z,102554.84
2023-04-09T11:42:56.860Z,102553.09
2023-04-09T11:45:26.292Z,102544.25
2023-04-09T11:47:53.675Z,102546.13
2023-04-09T11:50:21.205Z,102547.91
2023-04-09T11:52:48.601Z,102537.25
2023-04-09T11:55:25.968Z,102540.78
2023-04-09T11:57:57.594Z,102540.00
2023-04-09T12:00:25.139Z,102533.72
2023-04-09T12:02:59.742Z,102542.84
2023-04-09T12:05:29.439Z,102527.53
2023-04-09T12:08:01.245Z,102529.41
2023-04-09T12:10:29.368Z,102535.66
2023-04-09T12:13:00.720Z,102542.84
2023-04-09T12:15:32.142Z,102542.00
2023-04-09T12:17:59.171Z,102542.91
2023-04-09T12:20:32.818Z,102530.38
2023-04-09T12:23:01.233Z,102529.56
2023-04-09T12:25:27.993Z,102523.28
2023-04-09T12:27:56.098Z,102518.88
2023-04-09T12:30:23.676Z,102519.81
2023-04-09T12:32:50.949Z,102521.56
2023-04-09T12:35:17.587Z,102519.81
2023-04-09T12:37:44.516Z,102524.28
2023-04-09T12:40:13.897Z,102521.63
2023-04-09T12:42:41.657Z,102523.38
2023-04-09T12:45:10.366Z,102516.22
2023-04-09T12:47:37.064Z,102516.22
2023-04-09T12:50:04.512Z,102513.56
2023-04-09T12:52:31.046Z,102523.38
2023-04-09T12:54:57.624Z,102518.06
2023-04-09T12:57:24.225Z,102514.47
2023-04-09T12:59:50.990Z,102517.19
2023-04-09T13:02:19.262Z,102502.91
2023-04-09T13:04:45.968Z,102500.28
2023-04-09T13:07:15.581Z,102495.81
2023-04-09T13:09:42.500Z,102481.53
2023-04-09T13:12:09.046Z,102483.31
2023-04-09T13:14:36.409Z,102491.38
2023-04-09T13:17:03.118Z,102494.94
2023-04-09T13:19:29.698Z,102484.22
2023-04-09T13:21:56.289Z,102492.28
2023-04-09T13:24:22.869Z,102492.25
2023-04-09T13:26:49.410Z,102491.44
2023-04-09T13:29:16.620Z,102478.91
2023-04-09T13:31:43.241Z,102471.75
2023-04-09T13:34:09.821Z,102473.56
2023-04-09T13:36:36.386Z,102473.56
2023-04-09T13:39:06.045Z,102470.84
2023-04-09T13:41:33.570Z,102476.28
2023-04-09T13:44:00.863Z,102467.31
2023-04-09T13:46:27.985Z,102464.59
2023-04-09T13:48:55.058Z,102468.19
2023-04-09T13:51:26.329Z,102477.13
2023-04-09T13:53:52.902Z,102478.03
2023-04-09T13:56:19.521Z,102482.47
2023-04-09T13:58:46.902Z,102477.13
2023-04-09T14:01:14.402Z,102483.34
2023-04-09T14:03:41.076Z,102471.72
2023-04-09T14:06:08.745Z,102469.03
2023-04-09T14:08:35.934Z,102466.38
2023-04-09T14:11:02.956Z,102461.00
2023-04-09T14:13:29.768Z,102454.75
2023-04-09T14:15:58.595Z,102453.84
2023-04-09T14:18:26.497Z,102448.47
2023-04-09T14:20:53.144Z,102453.88
2023-04-09T14:23:19.703Z,102455.66
2023-04-09T14:25:46.282Z,102452.97
2023-04-09T14:28:12.854Z,102461.94
2023-04-09T14:30:39.454Z,102455.66
2023-04-09T14:33:06.669Z,102459.25
2023-04-09T14:35:33.311Z,102453.88
2023-04-09T14:37:59.924Z,102437.75
2023-04-09T14:40:26.516Z,102440.41
2023-04-09T14:42:53.103Z,102439.53
2023-04-09T14:45:19.694Z,102434.16
2023-04-09T14:47:46.283Z,102429.69
2023-04-09T14:50:12.969Z,102416.22
2023-04-09T14:52:39.597Z,102407.31
2023-04-09T14:55:12.155Z,102412.66
2023-04-09T14:57:39.812Z,102410.88
2023-04-09T15:00:08.235Z,102410.88
2023-04-09T15:02:35.459Z,102403.72
2023-04-09T15:05:03.138Z,102405.53
2023-04-09T15:07:29.972Z,102401.94
2023-04-09T15:09:59.906Z,102406.41
2023-04-09T15:12:28.259Z,102400.16
2023-04-09T15:14:57.745Z,102392.97
2023-04-09T15:17:25.504Z,102392.09
2023-04-09T15:19:54.746Z,102387.63
2023-04-09T15:22:21.666Z,102380.44
2023-04-09T15:24:48.867Z,102380.44
2023-04-09T15:27:16.091Z,102374.16
2023-04-09T15:29:43.422Z,102368.81
2023-04-09T15:32:10.035Z,102369.69
2023-04-09T15:34:36.697Z,102368.78
2023-04-09T15:37:03.398Z,102368.78
2023-04-09T15:39:30.000Z,102358.03
2023-04-09T15:41:59.196Z,102357.13
2023-04-09T15:44:26.061Z,102360.75
2023-04-09T15:46:52.732Z,102356.25
2023-04-09T15:49:19.753Z,102346.38
2023-04-09T15:51:46.527Z,102355.34
2023-04-09T15:54:13.212Z,102357.16
2023-04-09T15:56:40.381Z,102350.00
2023-04-09T15:59:08.387Z,102342.81
2023-04-09T16:01:36.405Z,102350.00
2023-04-09T16:04:03.816Z,102335.63
2023-04-09T16:06:30.656Z,102333.88
2023-04-09T16:08:57.533Z,102339.25
2023-04-09T16:11:24.123Z,102337.47
2023-04-09T16:13:50.742Z,102332.06
2023-04-09T16:16:17.387Z,102330.25
2023-04-09T16:18:44.015Z,102340.13
2023-04-09T16:21:10.620Z,102340.13
2023-04-09T16:23:38.417Z,102330.31
2023-04-09T16:26:05.506Z,102324.94
2023-04-09T16:28:32.118Z,102320.41
2023-04-09T16:30:59.476Z,102322.22
2023-04-09T16:33:26.275Z,102327.59
2023-04-09T16:35:52.887Z,102329.38
2023-04-09T16:38:19.526Z,102315.94
2023-04-09T16:40:46.366Z,102319.50
2023-04-09T16:43:13.040Z,102328.50
2023-04-09T16:45:39.615Z,102317.72
2023-04-09T16:48:11.472Z,102320.44
2023-04-09T16:50:39.645Z,102326.69
2023-04-09T16:53:06.578Z,102332.09
2023-04-09T16:55:33.699Z,102324.91
2023-04-09T16:58:00.363Z,102326.69
2023-04-09T17:00:27.569Z,102330.25
2023-04-09T17:02:55.687Z,102331.19
2023-04-09T17:05:22.827Z,102329.41
2023-04-09T17:07:49.451Z,102328.47
2023-04-09T17:10:16.434Z,102321.34
2023-04-09T17:12:44.344Z,102323.09
2023-04-09T17:15:11.317Z,102322.22
2023-04-09T17:17:38.168Z,102317.75
2023-04-09T17:20:05.351Z,102319.53
2023-04-09T17:22:32.269Z,102321.31
2023-04-09T17:24:58.840Z,102319.53
2023-04-09T17:27:25.423Z,102315.94
2023-04-09T17:29:51.978Z,102319.53
2023-04-09T17:32:18.792Z,102325.81
2023-04-09T17:34:49.491Z,102314.16
2023-04-09T17:37:16.299Z,102318.63
2023-04-09T17:39:42.990Z,102322.22
2023-04-09T17:42:11.745Z,102316.81
2023-04-09T17:44:38.727Z,102317.72
2023-04-09T17:47:06.820Z,102312.34
2023-04-09T17:49:33.440Z,102308.75
2023-04-09T17:52:00.199Z,102298.03
2023-04-09T17:54:26.802Z,102311.47
2023-04-09T17:56:53.412Z,102307.00
2023-04-09T17:59:20.597Z,102310.56
2023-04-09T18:01:47.316Z,102307.00
2023-04-09T18:04:14.168Z,102301.59
2023-04-09T18:06:41.016Z,102311.47
2023-04-09T18:09:07.642Z,102305.19
2023-04-09T18:11:34.235Z,102313.25
2023-04-09T18:14:07.836Z,102309.69
2023-04-09T18:16:37.183Z,102317.75
2023-04-09T18:19:04.561Z,102317.72
2023-04-09T18:21:36.354Z,102321.31
2023-04-09T18:24:03.590Z,102317.75
2023-04-09T18:26:30.824Z,102313.28
2023-04-09T18:29:00.587Z,102311.47
2023-04-09T18:31:27.902Z,102316.84
2023-04-09T18:33:54.580Z,102315.03
2023-04-09T18:36:21.395Z,102327.56
2023-04-09T18:38:48.239Z,102317.72
2023-04-09T18:41:22.430Z,102315.94
2023-04-09T18:43:48.995Z,102324.00
2023-04-09T18:46:15.627Z,102314.13
2023-04-09T18:48:43.413Z,102319.50
2023-04-09T18:51:10.803Z,102324.91
2023-04-09T18:53:37.816Z,102325.81
2023-04-09T18:56:04.519Z,102324.91
2023-04-09T18:58:31.391Z,102324.00
2023-04-09T19:00:58.292Z,102322.19
2023-04-09T19:03:25.796Z,102325.78
2023-04-09T19:05:53.744Z,102312.38
2023-04-09T19:08:20.299Z,102321.31
2023-04-09T19:10:47.807Z,102314.16
2023-04-09T19:13:14.412Z,102318.63
2023-04-09T19:15:40.964Z,102312.38
2023-04-09T19:18:07.784Z,102316.81
2023-04-09T19:20:34.368Z,102324.00
2023-04-09T19:23:01.044Z,102320.41
2023-04-09T19:25:28.756Z,102324.91
2023-04-09T19:27:55.425Z,102323.09
2023-04-09T19:30:22.090Z,102321.31
2023-04-09T19:32:48.810Z,102328.50
2023-04-09T19:35:15.570Z,102324.00
2023-04-09T19:37:42.611Z,102324.91
2023-04-09T19:40:09.656Z,102321.31
2023-04-09T19:42:36.382Z,102322.22
2023-04-09T19:45:03.054Z,102322.19
2023-04-09T19:47:29.704Z,102321.31
2023-04-09T19:49:56.513Z,102317.72
2023-04-09T19:52:23.058Z,102315.94
2023-04-09T19:54:53.948Z,102313.25
2023-04-09T19:57:20.523Z,102315.06
2023-04-09T19:59:49.300Z,102316.81
2023-04-09T20:02:16.746Z,102314.16
2023-04-09T20:04:43.461Z,102305.22
2023-04-09T20:07:10.065Z,102300.72
2023-04-09T20:09:41.251Z,102304.31
2023-04-09T20:12:09.021Z,102301.63
2023-04-09T20:14:38.019Z,102303.41
2023-04-09T20:17:04.970Z,102303.41
2023-04-09T20:19:32.037Z,102307.00
2023-04-09T20:22:00.258Z,102308.78
2023-04-09T20:24:28.252Z,102297.13
2023-04-09T20:26:55.803Z,102306.97
2023-04-09T20:29:22.596Z,102303.38
2023-04-09T20:31:49.331Z,102303.38
2023-04-09T20:34:15.921Z,102303.41
2023-04-09T20:36:43.882Z,102301.63
2023-04-09T20:39:11.620Z,102289.06
2023-04-09T20:41:38.265Z,102298.91
2023-04-09T20:44:04.854Z,102291.75
2023-04-09T20:46:31.402Z,102298.00
2023-04-09T20:48:57.977Z,102293.53
2023-04-09T20:51:24.522Z,102288.16
2023-04-09T20:53:51.314Z,102288.16
2023-04-09T20:56:18.463Z,102285.47
2023-04-09T20:58:45.036Z,102283.69
2023-04-09T21:01:11.608Z,102287.28
2023-04-09T21:03:39.030Z,102286.34
2023-04-09T21:06:06.501Z,102276.53
2023-04-09T21:08:33.052Z,102280.09
2023-04-09T21:10:59.638Z,102282.75
2023-04-09T21:13:27.382Z,102283.63
2023-04-09T21:15:53.937Z,102287.25
2023-04-09T21:18:20.517Z,102283.63
2023-04-09T21:20:47.377Z,102290.78
2023-04-09T21:23:14.242Z,102289.06
2023-04-09T21:25:41.500Z,102289.88
2023-04-09T21:28:08.138Z,102294.38
2023-04-09T21:30:35.400Z,102292.59
2023-04-09T21:33:03.318Z,102293.47
2023-04-09T21:35:29.978Z,102299.69
2023-04-09T21:37:56.844Z,102296.16
2023-04-09T21:40:23.844Z,102294.34
2023-04-09T21:42:51.280Z,102288.97
2023-04-09T21:45:17.899Z,102297.91
2023-04-09T21:47:44.649Z,102294.31
2023-04-09T21:50:11.533Z,102293.44
2023-04-09T21:52:38.083Z,102286.28
2023-04-09T21:55:04.850Z,102282.69
2023-04-09T21:57:32.604Z,102278.19
2023-04-09T21:59:59.195Z,102285.38
2023-04-09T22:02:26.079Z,102273.75
2023-04-09T22:04:52.753Z,102275.50
2023-04-09T22:07:19.348Z,102272.78
2023-04-09T22:09:46.110Z,102262.06
2023-04-09T22:12:12.726Z,102270.97
2023-04-09T22:14:41.713Z,102273.69
2023-04-09T22:17:08.832Z,102275.47
2023-04-09T22:19:35.409Z,102269.19
2023-04-09T22:22:01.979Z,102258.47
2023-04-09T22:24:30.281Z,102262.91
2023-04-09T22:26:59.058Z,102259.28
2023-04-09T22:29:26.629Z,102262.06
2023-04-09T22:31:53.471Z,102255.75
2023-04-09T22:34:21.916Z,102254.84
2023-04-09T22:36:48.839Z,102258.41
2023-04-09T22:39:15.445Z,102258.41
2023-04-09T22:41:41.997Z,102259.28
2023-04-09T22:44:09.611Z,102254.81
2023-04-09T22:46:36.708Z,102249.47
2023-04-09T22:49:05.319Z,102247.69
2023-04-09T22:51:34.529Z,102248.56
2023-04-09T22:54:02.099Z,102236.91
2023-04-09T22:56:30.160Z,102229.78
2023-04-09T22:58:56.803Z,102233.38
2023-04-09T23:01:23.501Z,102236.03
2023-04-09T23:03:50.844Z,102230.69
2023-04-09T23:06:17.557Z,102234.25
2023-04-09T23:08:44.279Z,102225.34
2023-04-09T23:11:10.909Z,102219.06
2023-04-09T23:13:38.195Z,102219.94
2023-04-09T23:16:06.339Z,102214.56
2023-04-09T23:18:34.364Z,102209.19
2023-04-09T23:21:07.744Z,102205.63
2023-04-09T23:23:34.614Z,102189.56
2023-04-09T23:26:01.304Z,102202.06
2023-04-09T23:28:28.201Z,102204.69
2023-04-09T23:30:55.152Z,102206.53
2023-04-09T23:33:21.705Z,102197.50
2023-04-09T23:35:48.405Z,102193.94
2023-04-09T23:38:15.651Z,102190.38
2023-04-09T23:40:42.571Z,102197.50
2023-04-09T23:43:09.170Z,102197.53
2023-04-09T23:45:35.750Z,102193.91
2023-04-09T23:48:03.437Z,102183.19
2023-04-09T23:50:30.403Z,102187.66
2023-04-09T23:53:03.408Z,102188.56
2023-04-09T23:55:30.066Z,102178.78
2023-04-09T23:57:56.862Z,102188.66
